Sycamore, Georgia
Current Conditions -  °F | °C
As of 9:55 PM on Thursday 27 Nov 2014 (Local Time) from KTMA Reporting Station
Clear Clear  
Wind Chill:   Ceiling: Unl
Heat Index:   Visibility: 10mi
Dew Point: -1°   Wind: 8mph
Humidity: 63%   Direction: 340°NNW
Pressure: 30.36"   Gusts: NA
Location:  31.67°N, 83.64°W
Report Text: KTMA 280255Z AUTO 34007KT 10SM CLR 06/M01 A3036 RMK AO2 T00601006
Loading
Personal Weather Stations






























Interactive Weather Map New forecast layout! Learn more

10-Day Weather Forecast

Advertisements
Track Severe Weather on mobile